KHMT/HMT METAR and TAF weather

Enter ICAO airport designator
Station Type Date Time Source
KHMT METAR 2022/01/19 20:35 UTC NOAA

KHMT 192035Z AUTO 00000KT 7SM CLR 16/09 A3013 RMK AO2 T01600087


Station Type Date Time Source
KHMT Decoded METAR 2022/01/19 20:35 UTC NOAA

Station name not available
Jan 19, 2022 - 03:35 PM EST / 2022.01.19 2035 UTC
Wind: Calm:0
Visibility: 7 mile(s):0
Sky conditions: clear
Temperature: 60.8 F (16.0 C)
Dew Point: 47.7 F (8.7 C)
Relative Humidity: 61%
Pressure (altimeter): 30.13 in. Hg (1020 hPa)
ob: KHMT 192035Z AUTO 00000KT 7SM CLR 16/09 A3013 RMK AO2 T01600087
cycle: 20

Station Type Date Time Source
KHMT TAF UTC NOAA

Error!

Example: see airport list